createdAt,value
2019-03-01T00:01:17.539Z,10.40
2019-03-01T00:03:53.462Z,10.40
2019-03-01T00:06:38.606Z,10.40
2019-03-01T00:09:37.679Z,10.40
2019-03-01T00:12:50.662Z,10.40
2019-03-01T00:16:12.768Z,10.40
2019-03-01T00:19:20.494Z,10.40
2019-03-01T00:22:19.098Z,10.40
2019-03-01T00:25:31.182Z,10.30
2019-03-01T00:28:29.020Z,10.30
2019-03-01T00:31:28.467Z,10.30
2019-03-01T00:34:59.778Z,10.30
2019-03-01T00:38:04.703Z,10.30
2019-03-01T00:41:06.612Z,10.30
2019-03-01T00:44:05.694Z,10.30
2019-03-01T00:46:37.478Z,10.30
2019-03-01T00:49:09.154Z,10.30
2019-03-01T00:51:40.837Z,10.30
2019-03-01T00:54:12.506Z,10.30
2019-03-01T00:56:44.193Z,10.30
2019-03-01T00:59:15.922Z,10.30
2019-03-01T01:01:47.600Z,10.30
2019-03-01T01:04:19.285Z,10.30
2019-03-01T01:06:50.968Z,10.30
2019-03-01T01:09:22.648Z,10.30
2019-03-01T01:11:54.339Z,10.30
2019-03-01T01:14:26.928Z,10.30
2019-03-01T01:16:58.608Z,10.30
2019-03-01T01:19:30.282Z,10.30
2019-03-01T01:22:01.970Z,10.30
2019-03-01T01:24:33.656Z,10.30
2019-03-01T01:27:05.369Z,10.30
2019-03-01T01:29:37.130Z,10.20
2019-03-01T01:32:08.833Z,10.20
2019-03-01T01:34:40.545Z,10.20
2019-03-01T01:37:12.239Z,10.20
2019-03-01T01:39:44.011Z,10.20
2019-03-01T01:42:15.705Z,10.20
2019-03-01T01:44:47.437Z,10.20
2019-03-01T01:47:19.200Z,10.20
2019-03-01T01:49:50.941Z,10.20
2019-03-01T01:52:22.710Z,10.10
2019-03-01T01:54:54.487Z,10.10
2019-03-01T01:57:26.209Z,10.10
2019-03-01T01:59:57.901Z,10.00
2019-03-01T02:02:29.569Z,10.10
2019-03-01T02:05:01.359Z,10.00
2019-03-01T02:07:33.042Z,10.00
2019-03-01T02:10:05.161Z,10.00
2019-03-01T02:12:36.899Z,10.00
2019-03-01T02:15:12.483Z,10.00
2019-03-01T02:17:43.715Z,10.00
2019-03-01T02:20:15.447Z,10.00
2019-03-01T02:22:47.137Z,10.00
2019-03-01T02:25:18.816Z,10.00
2019-03-01T02:27:50.521Z,10.00
2019-03-01T02:30:24.342Z,9.90
2019-03-01T02:32:56.039Z,9.90
2019-03-01T02:35:28.338Z,9.90
2019-03-01T02:38:00.132Z,9.90
2019-03-01T02:40:35.436Z,9.90
2019-03-01T02:43:07.118Z,9.90
2019-03-01T02:45:38.811Z,9.90
2019-03-01T02:48:10.561Z,9.90
2019-03-01T02:50:42.284Z,9.90
2019-03-01T02:53:14.449Z,9.90
2019-03-01T02:55:46.156Z,9.80
2019-03-01T02:58:17.995Z,9.80
2019-03-01T03:00:49.773Z,9.80
2019-03-01T03:03:21.648Z,9.70
2019-03-01T03:06:21.592Z,9.70
2019-03-01T03:08:53.468Z,9.70
2019-03-01T03:11:25.198Z,9.60
2019-03-01T03:13:57.024Z,9.60
2019-03-01T03:16:28.968Z,9.50
2019-03-01T03:19:00.734Z,9.50
2019-03-01T03:21:32.410Z,9.40
2019-03-01T03:24:04.172Z,9.40
2019-03-01T03:26:36.015Z,9.40
2019-03-01T03:29:07.759Z,9.30
2019-03-01T03:31:39.472Z,9.20
2019-03-01T03:34:11.224Z,9.10
2019-03-01T03:36:42.956Z,9.10
2019-03-01T03:39:14.660Z,9.00
2019-03-01T03:41:46.309Z,9.00
2019-03-01T03:44:18.019Z,8.90
2019-03-01T03:46:49.746Z,8.90
2019-03-01T03:49:21.443Z,8.90
2019-03-01T03:51:53.096Z,8.90
2019-03-01T03:54:24.856Z,8.80
2019-03-01T03:56:56.554Z,8.90
2019-03-01T03:59:28.255Z,8.90
2019-03-01T04:02:00.024Z,8.90
2019-03-01T04:04:31.789Z,8.80
2019-03-01T04:07:03.528Z,8.80
2019-03-01T04:09:35.314Z,8.80
2019-03-01T04:12:07.069Z,8.80
2019-03-01T04:14:38.770Z,8.80
2019-03-01T04:17:10.498Z,8.70
2019-03-01T04:19:42.200Z,8.70
2019-03-01T04:22:14.052Z,8.70
2019-03-01T04:24:45.796Z,8.70
2019-03-01T04:27:17.459Z,8.60
2019-03-01T04:29:49.289Z,8.60
2019-03-01T04:32:21.028Z,8.60
2019-03-01T04:34:52.703Z,8.50
2019-03-01T04:37:25.376Z,8.50
2019-03-01T04:39:57.078Z,8.40
2019-03-01T04:42:28.740Z,8.40
2019-03-01T04:45:00.513Z,8.40
2019-03-01T04:47:32.310Z,8.40
2019-03-01T04:50:04.416Z,8.30
2019-03-01T04:52:40.037Z,8.30
2019-03-01T04:55:20.258Z,8.30
2019-03-01T04:57:52.000Z,8.30
2019-03-01T05:00:24.495Z,8.30
2019-03-01T05:02:56.213Z,8.30
2019-03-01T05:05:27.978Z,8.30
2019-03-01T05:07:59.736Z,8.30
2019-03-01T05:10:31.513Z,8.30
2019-03-01T05:13:03.194Z,8.20
2019-03-01T05:15:35.077Z,8.20
2019-03-01T05:18:06.785Z,8.20
2019-03-01T05:20:38.551Z,8.20
2019-03-01T05:23:10.216Z,8.20
2019-03-01T05:25:42.036Z,8.20
2019-03-01T05:28:13.802Z,8.20
2019-03-01T05:30:45.521Z,8.20
2019-03-01T05:33:17.224Z,8.10
2019-03-01T05:35:48.918Z,8.10
2019-03-01T05:38:22.053Z,8.10
2019-03-01T05:40:53.937Z,8.10
2019-03-01T05:43:25.616Z,8.10
2019-03-01T05:45:57.319Z,8.00
2019-03-01T05:48:29.049Z,8.00
2019-03-01T05:51:00.838Z,8.00
2019-03-01T05:53:32.597Z,8.00
2019-03-01T05:56:04.287Z,8.00
2019-03-01T05:59:02.580Z,8.00
2019-03-01T06:01:48.749Z,7.90
2019-03-01T06:04:40.282Z,8.00
2019-03-01T06:07:43.096Z,8.00
2019-03-01T06:10:39.592Z,8.00
2019-03-01T06:13:54.546Z,8.00
2019-03-01T06:17:13.572Z,8.00
2019-03-01T06:19:53.719Z,8.00
2019-03-01T06:23:19.024Z,7.90
2019-03-01T06:26:19.226Z,8.00
2019-03-01T06:29:21.717Z,8.00
2019-03-01T06:32:36.768Z,8.00
2019-03-01T06:35:22.010Z,8.00
2019-03-01T06:38:58.461Z,8.00
2019-03-01T06:41:54.059Z,8.00
2019-03-01T06:45:06.996Z,8.00
2019-03-01T06:47:43.825Z,8.00
2019-03-01T06:50:17.361Z,8.00
2019-03-01T06:52:49.468Z,8.00
2019-03-01T06:55:34.157Z,8.00
2019-03-01T06:58:07.123Z,8.00
2019-03-01T07:00:49.840Z,8.00
2019-03-01T07:03:15.960Z,8.00
2019-03-01T07:05:47.759Z,8.00
2019-03-01T07:08:19.507Z,8.00
2019-03-01T07:10:51.983Z,8.00
2019-03-01T07:13:23.721Z,8.00
2019-03-01T07:15:55.461Z,8.00
2019-03-01T07:18:27.665Z,8.00
2019-03-01T07:21:00.172Z,8.00
2019-03-01T07:23:36.708Z,8.10
2019-03-01T07:26:05.808Z,8.10
2019-03-01T07:28:37.475Z,8.10
2019-03-01T07:31:09.212Z,8.10
2019-03-01T07:33:40.870Z,8.10
2019-03-01T07:36:12.568Z,8.10
2019-03-01T07:38:44.285Z,8.10
2019-03-01T07:41:15.988Z,8.10
2019-03-01T07:43:47.856Z,8.10
2019-03-01T07:46:20.075Z,8.10
2019-03-01T07:48:51.897Z,8.20
2019-03-01T07:51:27.007Z,8.30
2019-03-01T07:53:58.796Z,8.30
2019-03-01T07:56:30.605Z,8.30
2019-03-01T07:59:02.387Z,8.40
2019-03-01T08:01:34.366Z,8.40
2019-03-01T08:04:06.295Z,8.40
2019-03-01T08:06:37.984Z,8.40
2019-03-01T08:09:13.631Z,8.50
2019-03-01T08:11:45.469Z,8.50
2019-03-01T08:14:18.135Z,8.60
2019-03-01T08:16:52.643Z,8.50
2019-03-01T08:19:24.271Z,8.50
2019-03-01T08:21:56.133Z,8.50
2019-03-01T08:24:27.996Z,8.50
2019-03-01T08:26:59.947Z,8.40
2019-03-01T08:29:34.103Z,8.40
2019-03-01T08:32:05.104Z,8.40
2019-03-01T08:34:36.900Z,8.40
2019-03-01T08:37:08.574Z,8.40
2019-03-01T08:39:40.781Z,8.40
2019-03-01T08:42:12.511Z,8.50
2019-03-01T08:44:54.538Z,8.60
2019-03-01T08:47:29.078Z,8.60
2019-03-01T08:50:02.161Z,8.70
2019-03-01T08:52:37.165Z,8.70
2019-03-01T08:55:08.516Z,8.70
2019-03-01T08:57:44.439Z,8.70
2019-03-01T09:00:23.146Z,8.80
2019-03-01T09:02:56.456Z,8.80
2019-03-01T09:05:30.361Z,8.80
2019-03-01T09:08:02.262Z,8.80
2019-03-01T09:10:33.996Z,8.80
2019-03-01T09:13:05.809Z,8.80
2019-03-01T09:15:39.003Z,8.70
2019-03-01T09:18:14.560Z,8.70
2019-03-01T09:20:45.360Z,8.70
2019-03-01T09:23:24.372Z,8.80
2019-03-01T09:25:52.592Z,8.80
2019-03-01T09:28:24.066Z,8.80
2019-03-01T09:30:56.049Z,8.80
2019-03-01T09:33:27.888Z,8.80
2019-03-01T09:36:09.710Z,8.90
2019-03-01T09:38:42.914Z,8.90
2019-03-01T09:41:14.902Z,9.00
2019-03-01T09:43:46.551Z,9.00
2019-03-01T09:46:20.888Z,9.10
2019-03-01T09:48:51.684Z,9.10
2019-03-01T09:51:23.448Z,9.10
2019-03-01T09:53:55.222Z,9.00
2019-03-01T09:56:26.920Z,9.00
2019-03-01T09:58:59.044Z,9.10
2019-03-01T10:01:30.734Z,9.10
2019-03-01T10:04:04.063Z,9.20
2019-03-01T10:06:38.295Z,9.40
2019-03-01T10:09:11.937Z,9.60
2019-03-01T10:11:43.693Z,9.70
2019-03-01T10:14:15.456Z,9.70
2019-03-01T10:16:47.621Z,9.80
2019-03-01T10:19:19.358Z,9.90
2019-03-01T10:21:51.279Z,9.90
2019-03-01T10:24:39.386Z,10.00
2019-03-01T10:27:11.403Z,9.90
2019-03-01T10:29:59.773Z,9.90
2019-03-01T10:32:31.433Z,10.00
2019-03-01T10:35:03.178Z,10.00
2019-03-01T10:37:34.855Z,9.90
2019-03-01T10:40:07.176Z,9.90
2019-03-01T10:42:38.857Z,9.90
2019-03-01T10:45:17.000Z,9.80
2019-03-01T10:47:48.697Z,9.80
2019-03-01T10:50:20.391Z,9.80
2019-03-01T10:52:52.239Z,9.70
2019-03-01T10:55:24.027Z,9.80
2019-03-01T10:57:57.263Z,9.90
2019-03-01T11:00:29.146Z,9.90
2019-03-01T11:03:00.885Z,10.00
2019-03-01T11:05:33.325Z,10.20
2019-03-01T11:08:05.141Z,10.40
2019-03-01T11:10:37.451Z,10.50
2019-03-01T11:13:09.488Z,10.50
2019-03-01T11:15:42.254Z,10.50
2019-03-01T11:18:13.971Z,10.60
2019-03-01T11:20:45.649Z,10.70
2019-03-01T11:23:17.315Z,10.80
2019-03-01T11:25:50.227Z,10.90
2019-03-01T11:28:22.255Z,10.80
2019-03-01T11:30:53.965Z,10.80
2019-03-01T11:33:25.810Z,10.80
2019-03-01T11:35:57.467Z,10.80
2019-03-01T11:38:29.164Z,10.90
2019-03-01T11:41:01.321Z,11.10
2019-03-01T11:43:33.101Z,11.20
2019-03-01T11:46:04.832Z,11.30
2019-03-01T11:48:36.569Z,11.30
2019-03-01T11:51:08.324Z,11.30
2019-03-01T11:53:40.009Z,11.30
2019-03-01T11:56:14.411Z,11.30
2019-03-01T11:58:46.123Z,11.30
2019-03-01T12:01:17.794Z,11.30
2019-03-01T12:03:49.447Z,11.30
2019-03-01T12:06:21.116Z,11.20
2019-03-01T12:08:52.796Z,11.20
2019-03-01T12:11:26.748Z,11.20
2019-03-01T12:13:58.405Z,11.20
2019-03-01T12:16:30.072Z,11.20
2019-03-01T12:19:01.826Z,11.10
2019-03-01T12:21:33.508Z,11.20
2019-03-01T12:24:06.480Z,11.40
2019-03-01T12:26:38.319Z,11.50
2019-03-01T12:29:10.112Z,11.40
2019-03-01T12:31:43.906Z,11.40
2019-03-01T12:34:15.663Z,11.30
2019-03-01T12:36:47.355Z,11.20
2019-03-01T12:39:19.058Z,11.10
2019-03-01T12:41:51.951Z,11.10
2019-03-01T12:44:23.646Z,11.10
2019-03-01T12:46:55.375Z,11.10
2019-03-01T12:49:27.094Z,11.00
2019-03-01T12:51:58.818Z,10.90
2019-03-01T12:54:31.207Z,10.80
2019-03-01T12:57:03.178Z,10.70
2019-03-01T12:59:34.847Z,10.70
2019-03-01T13:02:06.504Z,10.60
2019-03-01T13:04:38.182Z,10.60
2019-03-01T13:07:10.574Z,10.60
2019-03-01T13:09:43.270Z,10.50
2019-03-01T13:12:15.018Z,10.50
2019-03-01T13:14:46.731Z,10.40
2019-03-01T13:17:18.418Z,10.40
2019-03-01T13:19:50.073Z,10.40
2019-03-01T13:22:24.775Z,10.30
2019-03-01T13:24:55.123Z,10.30
2019-03-01T13:27:26.800Z,10.30
2019-03-01T13:29:59.598Z,10.30
2019-03-01T13:32:31.639Z,10.30
2019-03-01T13:35:03.499Z,10.30
2019-03-01T13:37:35.210Z,10.40
2019-03-01T13:40:07.826Z,10.50
2019-03-01T13:42:39.586Z,10.60
2019-03-01T13:45:15.074Z,10.70
2019-03-01T13:47:47.542Z,10.80
2019-03-01T13:50:19.476Z,10.90
2019-03-01T13:52:51.309Z,10.90
2019-03-01T13:55:23.758Z,11.00
2019-03-01T13:57:55.804Z,11.10
2019-03-01T14:00:27.644Z,11.20
2019-03-01T14:02:59.448Z,11.20
2019-03-01T14:05:31.331Z,11.20
2019-03-01T14:08:09.336Z,11.00
2019-03-01T14:10:43.209Z,11.00
2019-03-01T14:13:15.723Z,10.90
2019-03-01T14:15:47.682Z,10.90
2019-03-01T14:18:19.420Z,10.80
2019-03-01T14:20:54.438Z,10.70
2019-03-01T14:23:25.991Z,10.70
2019-03-01T14:25:57.928Z,10.70
2019-03-01T14:28:29.579Z,10.60
2019-03-01T14:31:04.056Z,10.50
2019-03-01T14:33:34.737Z,10.50
2019-03-01T14:36:06.476Z,10.50
2019-03-01T14:38:38.228Z,10.40
2019-03-01T14:41:11.113Z,10.40
2019-03-01T14:43:43.212Z,10.40
2019-03-01T14:46:17.523Z,10.40
2019-03-01T14:48:48.369Z,10.40
2019-03-01T14:51:20.147Z,10.50
2019-03-01T14:53:51.868Z,10.50
2019-03-01T14:56:36.618Z,10.50
2019-03-01T14:59:38.060Z,10.60
2019-03-01T15:02:26.349Z,10.60
2019-03-01T15:05:16.925Z,10.60
2019-03-01T15:07:44.275Z,10.60
2019-03-01T15:10:16.456Z,10.70
2019-03-01T15:12:48.191Z,10.70
2019-03-01T15:15:22.946Z,10.70
2019-03-01T15:17:53.815Z,10.60
2019-03-01T15:20:25.773Z,10.60
2019-03-01T15:22:57.469Z,10.70
2019-03-01T15:25:29.187Z,10.70
2019-03-01T15:28:01.022Z,10.60
2019-03-01T15:30:32.936Z,10.60
2019-03-01T15:33:04.643Z,10.60
2019-03-01T15:35:39.753Z,10.60
2019-03-01T15:38:10.899Z,10.50
2019-03-01T15:40:42.736Z,10.50
2019-03-01T15:43:14.632Z,10.50
2019-03-01T15:45:46.353Z,10.40
2019-03-01T15:48:18.063Z,10.40
2019-03-01T15:50:49.769Z,10.40
2019-03-01T15:53:24.565Z,10.40
2019-03-01T15:55:54.905Z,10.50
2019-03-01T15:58:29.210Z,10.40
2019-03-01T16:01:00.113Z,10.40
2019-03-01T16:03:31.773Z,10.40
2019-03-01T16:06:03.558Z,10.40
2019-03-01T16:08:36.894Z,10.40
2019-03-01T16:11:09.279Z,10.40
2019-03-01T16:13:47.916Z,10.30
2019-03-01T16:16:15.606Z,10.30
2019-03-01T16:18:47.375Z,10.20
2019-03-01T16:21:19.089Z,10.20
2019-03-01T16:23:50.764Z,10.20
2019-03-01T16:26:29.775Z,10.30
2019-03-01T16:28:57.522Z,10.30
2019-03-01T16:31:32.063Z,10.30
2019-03-01T16:34:04.423Z,10.30
2019-03-01T16:36:40.026Z,10.30
2019-03-01T16:39:13.944Z,10.30
2019-03-01T16:41:45.667Z,10.30
2019-03-01T16:44:17.402Z,10.30
2019-03-01T16:46:49.132Z,10.20
2019-03-01T16:49:23.633Z,10.10
2019-03-01T16:51:54.760Z,10.10
2019-03-01T16:54:26.667Z,10.00
2019-03-01T16:56:58.370Z,10.00
2019-03-01T16:59:30.068Z,10.00
2019-03-01T17:02:06.105Z,10.00
2019-03-01T17:04:35.156Z,10.00
2019-03-01T17:07:06.840Z,9.90
2019-03-01T17:09:38.999Z,9.90
2019-03-01T17:12:13.888Z,9.90
2019-03-01T17:14:44.170Z,9.90
2019-03-01T17:17:15.844Z,9.80
2019-03-01T17:19:47.536Z,9.80
2019-03-01T17:22:19.221Z,9.80
2019-03-01T17:24:52.230Z,9.80
2019-03-01T17:27:23.912Z,9.80
2019-03-01T17:29:55.602Z,9.80
2019-03-01T17:32:27.504Z,9.80
2019-03-01T17:35:01.000Z,9.80
2019-03-01T17:37:32.649Z,9.80
2019-03-01T17:40:04.572Z,9.80
2019-03-01T17:42:36.285Z,9.80
2019-03-01T17:45:10.730Z,9.80
2019-03-01T17:47:45.426Z,9.70
2019-03-01T17:50:16.284Z,9.70
2019-03-01T17:52:48.044Z,9.70
2019-03-01T17:55:19.714Z,9.60
2019-03-01T17:57:51.389Z,9.70
2019-03-01T18:00:29.430Z,9.60
2019-03-01T18:03:01.144Z,9.60
2019-03-01T18:05:32.844Z,9.60
2019-03-01T18:08:04.980Z,9.60
2019-03-01T18:10:36.888Z,9.60
2019-03-01T18:13:08.612Z,9.60
2019-03-01T18:15:40.312Z,9.60
2019-03-01T18:18:12.891Z,9.60
2019-03-01T18:20:44.735Z,9.60
2019-03-01T18:23:16.977Z,9.60
2019-03-01T18:25:48.783Z,9.50
2019-03-01T18:28:20.491Z,9.50
2019-03-01T18:30:56.149Z,9.50
2019-03-01T18:33:28.120Z,9.50
2019-03-01T18:35:59.950Z,9.50
2019-03-01T18:38:32.452Z,9.50
2019-03-01T18:41:04.364Z,9.50
2019-03-01T18:43:36.164Z,9.50
2019-03-01T18:46:07.914Z,9.50
2019-03-01T18:48:40.590Z,9.40
2019-03-01T18:51:12.994Z,9.40
2019-03-01T18:53:45.584Z,9.40
2019-03-01T18:56:18.577Z,9.40
2019-03-01T18:58:50.299Z,9.40
2019-03-01T19:01:22.119Z,9.50
2019-03-01T19:03:53.914Z,9.50
2019-03-01T19:06:25.715Z,9.40
2019-03-01T19:08:57.671Z,9.50
2019-03-01T19:11:29.467Z,9.50
2019-03-01T19:14:01.819Z,9.50
2019-03-01T19:16:34.342Z,9.50
2019-03-01T19:19:06.126Z,9.50
2019-03-01T19:21:37.819Z,9.50
2019-03-01T19:24:09.518Z,9.50
2019-03-01T19:26:41.299Z,9.50
2019-03-01T19:29:13.057Z,9.40
2019-03-01T19:31:44.813Z,9.50
2019-03-01T19:34:16.893Z,9.50
2019-03-01T19:36:49.735Z,9.40
2019-03-01T19:39:22.486Z,9.50
2019-03-01T19:41:54.522Z,9.40
2019-03-01T19:44:29.111Z,9.40
2019-03-01T19:47:01.010Z,9.40
2019-03-01T19:49:32.724Z,9.40
2019-03-01T19:52:04.437Z,9.40
2019-03-01T19:54:36.552Z,9.40
2019-03-01T19:57:08.335Z,9.40
2019-03-01T19:59:40.027Z,9.40
2019-03-01T20:02:11.686Z,9.40
2019-03-01T20:04:43.384Z,9.30
2019-03-01T20:07:16.107Z,9.30
2019-03-01T20:09:48.459Z,9.30
2019-03-01T20:12:20.119Z,9.30
2019-03-01T20:14:51.878Z,9.30
2019-03-01T20:17:25.140Z,9.30
2019-03-01T20:19:58.054Z,9.30
2019-03-01T20:22:29.863Z,9.30
2019-03-01T20:25:01.624Z,9.30
2019-03-01T20:27:35.531Z,9.30
2019-03-01T20:30:09.939Z,9.30
2019-03-01T20:32:42.173Z,9.30
2019-03-01T20:35:14.034Z,9.30
2019-03-01T20:37:45.911Z,9.30
2019-03-01T20:40:17.575Z,9.30
2019-03-01T20:42:49.294Z,9.40
2019-03-01T20:45:25.939Z,9.40
2019-03-01T20:47:56.437Z,9.40
2019-03-01T20:50:28.128Z,9.40
2019-03-01T20:52:59.785Z,9.40
2019-03-01T20:55:33.135Z,9.40
2019-03-01T20:58:04.821Z,9.40
2019-03-01T21:00:36.547Z,9.30
2019-03-01T21:03:08.282Z,9.30
2019-03-01T21:05:39.989Z,9.30
2019-03-01T21:08:11.654Z,9.30
2019-03-01T21:10:43.331Z,9.30
2019-03-01T21:13:15.112Z,9.30
2019-03-01T21:15:46.874Z,9.40
2019-03-01T21:18:18.555Z,9.40
2019-03-01T21:20:50.526Z,9.30
2019-03-01T21:23:23.685Z,9.30
2019-03-01T21:25:55.363Z,9.30
2019-03-01T21:28:27.025Z,9.30
2019-03-01T21:30:59.113Z,9.40
2019-03-01T21:33:31.565Z,9.30
2019-03-01T21:36:03.266Z,9.40
2019-03-01T21:38:34.976Z,9.40
2019-03-01T21:41:09.805Z,9.40
2019-03-01T21:43:40.012Z,9.40
2019-03-01T21:46:11.729Z,9.40
2019-03-01T21:48:43.520Z,9.40
2019-03-01T21:51:18.501Z,9.30
2019-03-01T21:53:48.679Z,9.30
2019-03-01T21:56:20.362Z,9.30
2019-03-01T21:58:52.316Z,9.30
2019-03-01T22:01:24.161Z,9.30
2019-03-01T22:03:55.834Z,9.30
2019-03-01T22:06:27.521Z,9.30
2019-03-01T22:08:59.194Z,9.30
2019-03-01T22:11:30.861Z,9.30
2019-03-01T22:14:02.543Z,9.30
2019-03-01T22:16:36.616Z,9.30
2019-03-01T22:19:07.618Z,9.30
2019-03-01T22:21:39.304Z,9.30
2019-03-01T22:24:10.978Z,9.30
2019-03-01T22:26:42.690Z,9.30
2019-03-01T22:29:14.400Z,9.30
2019-03-01T22:31:46.603Z,9.30
2019-03-01T22:34:18.368Z,9.30
2019-03-01T22:36:52.893Z,9.30
2019-03-01T22:39:23.514Z,9.30
2019-03-01T22:41:55.206Z,9.30
2019-03-01T22:44:26.860Z,9.30
2019-03-01T22:47:00.725Z,9.30
2019-03-01T22:49:32.760Z,9.30
2019-03-01T22:52:04.508Z,9.30
2019-03-01T22:54:36.156Z,9.30
2019-03-01T22:57:07.838Z,9.30
2019-03-01T22:59:39.508Z,9.30
2019-03-01T23:02:14.189Z,9.30
2019-03-01T23:04:45.960Z,9.30
2019-03-01T23:07:17.755Z,9.30
2019-03-01T23:09:49.465Z,9.30
2019-03-01T23:12:21.242Z,9.30
2019-03-01T23:14:52.944Z,9.30
2019-03-01T23:17:27.521Z,9.30
2019-03-01T23:19:58.033Z,9.30
2019-03-01T23:22:29.738Z,9.30
2019-03-01T23:25:01.464Z,9.30
2019-03-01T23:27:33.242Z,9.30
2019-03-01T23:30:05.578Z,9.30
2019-03-01T23:32:37.283Z,9.30
2019-03-01T23:35:08.979Z,9.20
2019-03-01T23:37:40.785Z,9.30
2019-03-01T23:40:12.531Z,9.20
2019-03-01T23:42:44.215Z,9.30
2019-03-01T23:45:17.428Z,9.30
2019-03-01T23:47:49.457Z,9.30
2019-03-01T23:50:21.152Z,9.30
2019-03-01T23:52:54.904Z,9.20
2019-03-01T23:55:26.195Z,9.30
2019-03-01T23:58:05.806Z,9.30
